sensor_id;sensor_type;location;lat;lon;timestamp;temperature;humidity
70368;DHT22;57789;53.868;10.728;2022-10-24T00:00:00;13.90;99.90
70368;DHT22;57789;53.868;10.728;2022-10-24T00:02:26;13.80;99.90
70368;DHT22;57789;53.868;10.728;2022-10-24T00:04:51;13.90;99.90
70368;DHT22;57789;53.868;10.728;2022-10-24T00:07:17;13.90;99.90
70368;DHT22;57789;53.868;10.728;2022-10-24T00:09:43;13.90;99.90
70368;DHT22;57789;53.868;10.728;2022-10-24T00:12:09;13.90;99.90
70368;DHT22;57789;53.868;10.728;2022-10-24T00:14:35;13.90;99.90
70368;DHT22;57789;53.868;10.728;2022-10-24T00:17:01;14.00;99.90
70368;DHT22;57789;53.868;10.728;2022-10-24T00:19:27;14.10;99.90
70368;DHT22;57789;53.868;10.728;2022-10-24T00:21:52;14.20;99.90
70368;DHT22;57789;53.868;10.728;2022-10-24T00:24:18;14.30;99.90
70368;DHT22;57789;53.868;10.728;2022-10-24T00:26:43;14.40;99.90
70368;DHT22;57789;53.868;10.728;2022-10-24T00:29:10;14.40;99.90
70368;DHT22;57789;53.868;10.728;2022-10-24T00:31:36;14.40;99.90
70368;DHT22;57789;53.868;10.728;2022-10-24T00:34:02;14.50;99.90
70368;DHT22;57789;53.868;10.728;2022-10-24T00:36:28;14.50;99.90
70368;DHT22;57789;53.868;10.728;2022-10-24T00:38:55;14.40;99.90
70368;DHT22;57789;53.868;10.728;2022-10-24T00:41:41;14.30;99.90
70368;DHT22;57789;53.868;10.728;2022-10-24T00:44:24;14.30;99.90
70368;DHT22;57789;53.868;10.728;2022-10-24T00:47:03;14.20;99.90
70368;DHT22;57789;53.868;10.728;2022-10-24T00:49:39;14.20;99.90
70368;DHT22;57789;53.868;10.728;2022-10-24T00:52:08;14.10;99.90
70368;DHT22;57789;53.868;10.728;2022-10-24T00:54:35;14.10;99.90
70368;DHT22;57789;53.868;10.728;2022-10-24T00:57:12;14.10;99.90
70368;DHT22;57789;53.868;10.728;2022-10-24T00:59:42;14.10;99.90
70368;DHT22;57789;53.868;10.728;2022-10-24T01:02:10;14.10;99.90
70368;DHT22;57789;53.868;10.728;2022-10-24T01:04:36;14.00;99.90
70368;DHT22;57789;53.868;10.728;2022-10-24T01:09:44;14.00;99.90
70368;DHT22;57789;53.868;10.728;2022-10-24T01:15:23;13.90;99.90
70368;DHT22;57789;53.868;10.728;2022-10-24T01:17:54;13.90;99.90
70368;DHT22;57789;53.868;10.728;2022-10-24T01:20:50;14.00;99.90
70368;DHT22;57789;53.868;10.728;2022-10-24T01:29:00;13.90;99.90
70368;DHT22;57789;53.868;10.728;2022-10-24T01:31:42;13.90;99.90
70368;DHT22;57789;53.868;10.728;2022-10-24T01:34:23;13.90;99.90
70368;DHT22;57789;53.868;10.728;2022-10-24T01:36:58;13.90;99.90
70368;DHT22;57789;53.868;10.728;2022-10-24T01:39:30;13.90;99.90
70368;DHT22;57789;53.868;10.728;2022-10-24T01:41:57;13.90;99.90
70368;DHT22;57789;53.868;10.728;2022-10-24T01:44:31;13.90;99.90
70368;DHT22;57789;53.868;10.728;2022-10-24T01:47:04;13.90;99.90
70368;DHT22;57789;53.868;10.728;2022-10-24T01:49:34;13.90;99.90
70368;DHT22;57789;53.868;10.728;2022-10-24T01:52:03;13.80;99.90
70368;DHT22;57789;53.868;10.728;2022-10-24T01:54:31;13.80;99.90
70368;DHT22;57789;53.868;10.728;2022-10-24T01:56:58;13.80;99.90
70368;DHT22;57789;53.868;10.728;2022-10-24T02:02:03;13.70;99.90
70368;DHT22;57789;53.868;10.728;2022-10-24T02:04:31;13.70;99.90
70368;DHT22;57789;53.868;10.728;2022-10-24T02:07:01;13.70;99.90
70368;DHT22;57789;53.868;10.728;2022-10-24T02:09:29;13.60;99.90
70368;DHT22;57789;53.868;10.728;2022-10-24T02:11:57;13.60;99.90
70368;DHT22;57789;53.868;10.728;2022-10-24T02:14:33;13.60;99.90
70368;DHT22;57789;53.868;10.728;2022-10-24T02:17:00;13.60;99.90
70368;DHT22;57789;53.868;10.728;2022-10-24T02:19:26;13.50;99.90
70368;DHT22;57789;53.868;10.728;2022-10-24T02:22:18;13.50;99.90
70368;DHT22;57789;53.868;10.728;2022-10-24T02:24:57;13.50;99.90
70368;DHT22;57789;53.868;10.728;2022-10-24T02:27:28;13.50;99.90
70368;DHT22;57789;53.868;10.728;2022-10-24T02:30:19;13.50;99.90
70368;DHT22;57789;53.868;10.728;2022-10-24T02:32:49;13.40;99.90
70368;DHT22;57789;53.868;10.728;2022-10-24T02:35:18;13.40;99.90
70368;DHT22;57789;53.868;10.728;2022-10-24T02:37:49;13.40;99.90
70368;DHT22;57789;53.868;10.728;2022-10-24T02:40:17;13.40;99.90
70368;DHT22;57789;53.868;10.728;2022-10-24T02:42:45;13.30;99.90
70368;DHT22;57789;53.868;10.728;2022-10-24T02:45:15;13.30;99.90
70368;DHT22;57789;53.868;10.728;2022-10-24T02:47:42;13.30;99.90
70368;DHT22;57789;53.868;10.728;2022-10-24T02:50:09;13.20;99.90
70368;DHT22;57789;53.868;10.728;2022-10-24T02:52:36;13.20;99.90
70368;DHT22;57789;53.868;10.728;2022-10-24T02:55:03;13.10;99.90
70368;DHT22;57789;53.868;10.728;2022-10-24T02:57:28;13.10;99.90
70368;DHT22;57789;53.868;10.728;2022-10-24T02:59:54;13.10;99.90
70368;DHT22;57789;53.868;10.728;2022-10-24T03:02:21;13.10;99.90
70368;DHT22;57789;53.868;10.728;2022-10-24T03:04:46;13.10;99.90
70368;DHT22;57789;53.868;10.728;2022-10-24T03:07:12;13.10;99.90
70368;DHT22;57789;53.868;10.728;2022-10-24T03:09:37;13.00;99.90
70368;DHT22;57789;53.868;10.728;2022-10-24T03:12:03;13.00;99.90
70368;DHT22;57789;53.868;10.728;2022-10-24T03:14:29;13.00;99.90
70368;DHT22;57789;53.868;10.728;2022-10-24T03:16:55;13.00;99.90
70368;DHT22;57789;53.868;10.728;2022-10-24T03:19:21;13.00;99.90
70368;DHT22;57789;53.868;10.728;2022-10-24T03:21:46;12.90;99.90
70368;DHT22;57789;53.868;10.728;2022-10-24T03:24:12;12.90;99.90
70368;DHT22;57789;53.868;10.728;2022-10-24T03:26:38;12.80;99.90
70368;DHT22;57789;53.868;10.728;2022-10-24T03:29:03;12.80;99.90
70368;DHT22;57789;53.868;10.728;2022-10-24T03:31:30;12.80;99.90
70368;DHT22;57789;53.868;10.728;2022-10-24T03:33:57;12.80;99.90
70368;DHT22;57789;53.868;10.728;2022-10-24T03:36:23;12.80;99.90
70368;DHT22;57789;53.868;10.728;2022-10-24T03:38:49;12.70;99.90
70368;DHT22;57789;53.868;10.728;2022-10-24T03:41:15;12.70;99.90
70368;DHT22;57789;53.868;10.728;2022-10-24T03:43:40;12.70;99.90
70368;DHT22;57789;53.868;10.728;2022-10-24T03:46:06;12.70;99.90
70368;DHT22;57789;53.868;10.728;2022-10-24T03:48:32;12.60;99.90
70368;DHT22;57789;53.868;10.728;2022-10-24T03:50:57;12.60;99.90
70368;DHT22;57789;53.868;10.728;2022-10-24T03:53:23;12.60;99.90
70368;DHT22;57789;53.868;10.728;2022-10-24T03:55:49;12.60;99.90
70368;DHT22;57789;53.868;10.728;2022-10-24T03:58:15;12.70;99.90
70368;DHT22;57789;53.868;10.728;2022-10-24T04:00:40;12.60;99.90
70368;DHT22;57789;53.868;10.728;2022-10-24T04:03:07;12.60;99.90
70368;DHT22;57789;53.868;10.728;2022-10-24T04:05:34;12.70;99.90
70368;DHT22;57789;53.868;10.728;2022-10-24T04:08:01;12.70;99.90
70368;DHT22;57789;53.868;10.728;2022-10-24T04:10:26;12.70;99.90
70368;DHT22;57789;53.868;10.728;2022-10-24T04:12:52;12.70;99.90
70368;DHT22;57789;53.868;10.728;2022-10-24T04:15:18;12.70;99.90
70368;DHT22;57789;53.868;10.728;2022-10-24T04:17:44;12.70;99.90
70368;DHT22;57789;53.868;10.728;2022-10-24T04:20:10;12.70;99.90
70368;DHT22;57789;53.868;10.728;2022-10-24T04:22:36;12.70;99.90
70368;DHT22;57789;53.868;10.728;2022-10-24T04:25:01;12.70;99.90
70368;DHT22;57789;53.868;10.728;2022-10-24T04:27:27;12.70;99.90
70368;DHT22;57789;53.868;10.728;2022-10-24T04:29:53;12.70;99.90
70368;DHT22;57789;53.868;10.728;2022-10-24T04:32:18;12.70;99.90
70368;DHT22;57789;53.868;10.728;2022-10-24T04:34:44;12.70;99.90
70368;DHT22;57789;53.868;10.728;2022-10-24T04:37:09;12.60;99.90
70368;DHT22;57789;53.868;10.728;2022-10-24T04:39:35;12.70;99.90
70368;DHT22;57789;53.868;10.728;2022-10-24T04:42:01;12.70;99.90
70368;DHT22;57789;53.868;10.728;2022-10-24T04:44:26;12.70;99.90
70368;DHT22;57789;53.868;10.728;2022-10-24T04:46:52;12.70;99.90
70368;DHT22;57789;53.868;10.728;2022-10-24T04:49:18;12.70;99.90
70368;DHT22;57789;53.868;10.728;2022-10-24T04:51:44;12.70;99.90
70368;DHT22;57789;53.868;10.728;2022-10-24T04:54:09;12.70;99.90
70368;DHT22;57789;53.868;10.728;2022-10-24T04:56:35;12.60;99.90
70368;DHT22;57789;53.868;10.728;2022-10-24T04:59:01;12.60;99.90
70368;DHT22;57789;53.868;10.728;2022-10-24T05:01:27;12.60;99.90
70368;DHT22;57789;53.868;10.728;2022-10-24T05:03:52;12.60;99.90
70368;DHT22;57789;53.868;10.728;2022-10-24T05:06:18;12.60;99.90
70368;DHT22;57789;53.868;10.728;2022-10-24T05:08:44;12.60;99.90
70368;DHT22;57789;53.868;10.728;2022-10-24T05:11:10;12.50;99.90
70368;DHT22;57789;53.868;10.728;2022-10-24T05:13:37;12.60;99.90
70368;DHT22;57789;53.868;10.728;2022-10-24T05:16:04;12.50;99.90
70368;DHT22;57789;53.868;10.728;2022-10-24T05:18:29;12.50;99.90
70368;DHT22;57789;53.868;10.728;2022-10-24T05:20:56;12.50;99.90
70368;DHT22;57789;53.868;10.728;2022-10-24T05:23:22;12.50;99.90
70368;DHT22;57789;53.868;10.728;2022-10-24T05:25:48;12.50;99.90
70368;DHT22;57789;53.868;10.728;2022-10-24T05:28:13;12.50;99.90
70368;DHT22;57789;53.868;10.728;2022-10-24T05:30:41;12.50;99.90
70368;DHT22;57789;53.868;10.728;2022-10-24T05:33:06;12.50;99.90
70368;DHT22;57789;53.868;10.728;2022-10-24T05:35:32;12.50;99.90
70368;DHT22;57789;53.868;10.728;2022-10-24T05:37:58;12.50;99.90
70368;DHT22;57789;53.868;10.728;2022-10-24T05:40:24;12.50;99.90
70368;DHT22;57789;53.868;10.728;2022-10-24T05:42:49;12.50;99.90
70368;DHT22;57789;53.868;10.728;2022-10-24T05:45:18;12.50;99.90
70368;DHT22;57789;53.868;10.728;2022-10-24T05:47:44;12.50;99.90
70368;DHT22;57789;53.868;10.728;2022-10-24T05:50:10;12.50;99.90
70368;DHT22;57789;53.868;10.728;2022-10-24T05:52:35;12.60;99.90
70368;DHT22;57789;53.868;10.728;2022-10-24T05:55:03;12.50;99.90
70368;DHT22;57789;53.868;10.728;2022-10-24T05:57:29;12.50;99.90
70368;DHT22;57789;53.868;10.728;2022-10-24T05:59:55;12.50;99.90
70368;DHT22;57789;53.868;10.728;2022-10-24T06:02:21;12.60;99.90
70368;DHT22;57789;53.868;10.728;2022-10-24T06:04:47;12.60;99.90
70368;DHT22;57789;53.868;10.728;2022-10-24T06:07:14;12.60;99.90
70368;DHT22;57789;53.868;10.728;2022-10-24T06:09:40;12.60;99.90
70368;DHT22;57789;53.868;10.728;2022-10-24T06:12:07;12.60;99.90
70368;DHT22;57789;53.868;10.728;2022-10-24T06:14:34;12.60;99.90
70368;DHT22;57789;53.868;10.728;2022-10-24T06:17:00;12.60;99.90
70368;DHT22;57789;53.868;10.728;2022-10-24T06:19:26;12.60;99.90
70368;DHT22;57789;53.868;10.728;2022-10-24T06:21:51;12.60;99.90
70368;DHT22;57789;53.868;10.728;2022-10-24T06:24:17;12.60;99.90
70368;DHT22;57789;53.868;10.728;2022-10-24T06:26:42;12.60;99.90
70368;DHT22;57789;53.868;10.728;2022-10-24T06:29:10;12.60;99.90
70368;DHT22;57789;53.868;10.728;2022-10-24T06:31:35;12.60;99.90
70368;DHT22;57789;53.868;10.728;2022-10-24T06:34:02;12.60;99.90
70368;DHT22;57789;53.868;10.728;2022-10-24T06:36:28;12.50;99.90
70368;DHT22;57789;53.868;10.728;2022-10-24T06:38:55;12.60;99.90
70368;DHT22;57789;53.868;10.728;2022-10-24T06:41:22;12.60;99.90
70368;DHT22;57789;53.868;10.728;2022-10-24T06:43:48;12.60;99.90
70368;DHT22;57789;53.868;10.728;2022-10-24T06:46:15;12.60;99.90
70368;DHT22;57789;53.868;10.728;2022-10-24T06:48:41;12.60;99.90
70368;DHT22;57789;53.868;10.728;2022-10-24T06:51:07;12.60;99.90
70368;DHT22;57789;53.868;10.728;2022-10-24T06:53:33;12.60;99.90
70368;DHT22;57789;53.868;10.728;2022-10-24T06:56:03;12.60;99.90
70368;DHT22;57789;53.868;10.728;2022-10-24T06:58:30;12.70;99.90
70368;DHT22;57789;53.868;10.728;2022-10-24T07:00:56;12.70;99.90
70368;DHT22;57789;53.868;10.728;2022-10-24T07:03:22;12.70;99.90
70368;DHT22;57789;53.868;10.728;2022-10-24T07:05:48;12.70;99.90
70368;DHT22;57789;53.868;10.728;2022-10-24T07:08:13;12.70;99.90
70368;DHT22;57789;53.868;10.728;2022-10-24T07:10:39;12.70;99.90
70368;DHT22;57789;53.868;10.728;2022-10-24T07:13:04;12.80;99.90
70368;DHT22;57789;53.868;10.728;2022-10-24T07:15:30;12.80;99.90
70368;DHT22;57789;53.868;10.728;2022-10-24T07:17:56;12.80;99.90
70368;DHT22;57789;53.868;10.728;2022-10-24T07:20:21;12.80;99.90
70368;DHT22;57789;53.868;10.728;2022-10-24T07:22:47;12.80;99.90
70368;DHT22;57789;53.868;10.728;2022-10-24T07:25:13;12.90;99.90
70368;DHT22;57789;53.868;10.728;2022-10-24T07:27:38;12.90;99.90
70368;DHT22;57789;53.868;10.728;2022-10-24T07:30:05;12.90;99.90
70368;DHT22;57789;53.868;10.728;2022-10-24T07:32:31;12.90;99.90
70368;DHT22;57789;53.868;10.728;2022-10-24T07:34:57;13.00;99.90
70368;DHT22;57789;53.868;10.728;2022-10-24T07:37:23;13.00;99.90
70368;DHT22;57789;53.868;10.728;2022-10-24T07:39:48;13.00;99.90
70368;DHT22;57789;53.868;10.728;2022-10-24T07:42:15;13.10;99.90
70368;DHT22;57789;53.868;10.728;2022-10-24T07:44:41;13.10;99.90
70368;DHT22;57789;53.868;10.728;2022-10-24T07:47:07;13.20;99.90
70368;DHT22;57789;53.868;10.728;2022-10-24T07:49:35;13.20;99.90
70368;DHT22;57789;53.868;10.728;2022-10-24T07:52:00;13.20;99.90
70368;DHT22;57789;53.868;10.728;2022-10-24T07:54:26;13.30;99.90
70368;DHT22;57789;53.868;10.728;2022-10-24T07:56:53;13.40;99.90
70368;DHT22;57789;53.868;10.728;2022-10-24T07:59:19;13.50;99.90
70368;DHT22;57789;53.868;10.728;2022-10-24T08:01:45;13.60;99.90
70368;DHT22;57789;53.868;10.728;2022-10-24T08:04:11;13.60;99.90
70368;DHT22;57789;53.868;10.728;2022-10-24T08:06:37;13.70;99.90
70368;DHT22;57789;53.868;10.728;2022-10-24T08:09:05;13.80;99.90
70368;DHT22;57789;53.868;10.728;2022-10-24T08:11:31;13.80;99.90
70368;DHT22;57789;53.868;10.728;2022-10-24T08:13:57;13.90;99.90
70368;DHT22;57789;53.868;10.728;2022-10-24T08:16:23;14.00;99.90
70368;DHT22;57789;53.868;10.728;2022-10-24T08:18:51;14.10;99.90
70368;DHT22;57789;53.868;10.728;2022-10-24T08:21:19;14.10;99.90
70368;DHT22;57789;53.868;10.728;2022-10-24T08:23:49;14.20;99.90
70368;DHT22;57789;53.868;10.728;2022-10-24T08:26:18;14.20;99.90
70368;DHT22;57789;53.868;10.728;2022-10-24T08:28:44;14.30;99.90
70368;DHT22;57789;53.868;10.728;2022-10-24T08:31:16;14.30;99.90
70368;DHT22;57789;53.868;10.728;2022-10-24T08:33:42;14.40;99.90
70368;DHT22;57789;53.868;10.728;2022-10-24T08:36:25;14.40;99.90
70368;DHT22;57789;53.868;10.728;2022-10-24T08:38:51;14.50;99.90
70368;DHT22;57789;53.868;10.728;2022-10-24T08:41:28;14.60;99.90
70368;DHT22;57789;53.868;10.728;2022-10-24T08:43:56;14.70;99.90
70368;DHT22;57789;53.868;10.728;2022-10-24T08:46:43;14.90;99.90
70368;DHT22;57789;53.868;10.728;2022-10-24T08:51:46;15.00;99.90
70368;DHT22;57789;53.868;10.728;2022-10-24T08:54:17;15.10;99.90
70368;DHT22;57789;53.868;10.728;2022-10-24T08:56:44;15.20;99.90
70368;DHT22;57789;53.868;10.728;2022-10-24T08:59:11;15.30;99.90
70368;DHT22;57789;53.868;10.728;2022-10-24T09:04:13;15.50;99.90
70368;DHT22;57789;53.868;10.728;2022-10-24T09:06:41;15.70;99.90
70368;DHT22;57789;53.868;10.728;2022-10-24T09:09:22;15.70;99.90
70368;DHT22;57789;53.868;10.728;2022-10-24T09:12:02;15.80;99.90
70368;DHT22;57789;53.868;10.728;2022-10-24T09:14:31;16.00;99.90
70368;DHT22;57789;53.868;10.728;2022-10-24T09:17:22;16.10;99.90
70368;DHT22;57789;53.868;10.728;2022-10-24T09:19:55;16.30;99.90
70368;DHT22;57789;53.868;10.728;2022-10-24T09:22:22;16.40;99.90
70368;DHT22;57789;53.868;10.728;2022-10-24T09:27:29;16.50;99.90
70368;DHT22;57789;53.868;10.728;2022-10-24T09:29:56;16.50;99.90
70368;DHT22;57789;53.868;10.728;2022-10-24T09:32:25;16.60;99.90
70368;DHT22;57789;53.868;10.728;2022-10-24T09:34:52;16.60;99.90
70368;DHT22;57789;53.868;10.728;2022-10-24T09:37:34;16.60;99.90
70368;DHT22;57789;53.868;10.728;2022-10-24T09:40:12;16.70;99.90
70368;DHT22;57789;53.868;10.728;2022-10-24T09:43:00;16.70;99.90
70368;DHT22;57789;53.868;10.728;2022-10-24T09:45:39;16.80;99.90
70368;DHT22;57789;53.868;10.728;2022-10-24T09:48:31;16.90;99.90
70368;DHT22;57789;53.868;10.728;2022-10-24T09:51:01;17.00;99.90
70368;DHT22;57789;53.868;10.728;2022-10-24T09:53:31;17.10;99.90
70368;DHT22;57789;53.868;10.728;2022-10-24T09:56:00;17.30;99.90
70368;DHT22;57789;53.868;10.728;2022-10-24T09:58:29;17.40;99.90
70368;DHT22;57789;53.868;10.728;2022-10-24T10:03:38;17.80;99.90
70368;DHT22;57789;53.868;10.728;2022-10-24T10:06:17;17.90;99.90
70368;DHT22;57789;53.868;10.728;2022-10-24T10:08:53;18.00;99.90
70368;DHT22;57789;53.868;10.728;2022-10-24T10:11:28;18.10;99.90
70368;DHT22;57789;53.868;10.728;2022-10-24T10:13:56;18.10;99.90
70368;DHT22;57789;53.868;10.728;2022-10-24T10:16:32;18.20;99.90
70368;DHT22;57789;53.868;10.728;2022-10-24T10:19:18;18.20;99.90
70368;DHT22;57789;53.868;10.728;2022-10-24T10:24:38;18.20;99.90
70368;DHT22;57789;53.868;10.728;2022-10-24T10:35:48;18.30;99.90
70368;DHT22;57789;53.868;10.728;2022-10-24T10:41:01;18.30;99.90
70368;DHT22;57789;53.868;10.728;2022-10-24T10:43:52;18.30;99.90
70368;DHT22;57789;53.868;10.728;2022-10-24T10:57:19;18.40;99.90
70368;DHT22;57789;53.868;10.728;2022-10-24T11:02:49;18.50;99.90
70368;DHT22;57789;53.868;10.728;2022-10-24T11:05:46;18.60;99.90
70368;DHT22;57789;53.868;10.728;2022-10-24T11:11:20;18.90;99.90
70368;DHT22;57789;53.868;10.728;2022-10-24T11:13:56;19.20;99.90
70368;DHT22;57789;53.868;10.728;2022-10-24T11:16:28;19.40;99.90
70368;DHT22;57789;53.868;10.728;2022-10-24T11:19:04;19.70;99.90
70368;DHT22;57789;53.868;10.728;2022-10-24T11:21:34;20.00;99.90
70368;DHT22;57789;53.868;10.728;2022-10-24T11:24:14;20.10;99.90
70368;DHT22;57789;53.868;10.728;2022-10-24T11:26:50;20.00;99.90
70368;DHT22;57789;53.868;10.728;2022-10-24T11:29:30;19.90;99.90
70368;DHT22;57789;53.868;10.728;2022-10-24T11:35:06;19.50;99.90
70368;DHT22;57789;53.868;10.728;2022-10-24T11:37:41;19.50;99.90
70368;DHT22;57789;53.868;10.728;2022-10-24T11:40:14;19.50;99.90
70368;DHT22;57789;53.868;10.728;2022-10-24T11:45:16;19.40;99.90
70368;DHT22;57789;53.868;10.728;2022-10-24T11:52:50;19.40;99.90
70368;DHT22;57789;53.868;10.728;2022-10-24T11:55:20;19.50;99.90
70368;DHT22;57789;53.868;10.728;2022-10-24T11:57:51;19.50;99.90
70368;DHT22;57789;53.868;10.728;2022-10-24T12:00:22;19.50;99.90
70368;DHT22;57789;53.868;10.728;2022-10-24T12:05:28;19.70;99.90
70368;DHT22;57789;53.868;10.728;2022-10-24T12:11:14;19.70;99.90
70368;DHT22;57789;53.868;10.728;2022-10-24T12:19:20;19.30;99.90
70368;DHT22;57789;53.868;10.728;2022-10-24T12:21:51;19.30;99.90
70368;DHT22;57789;53.868;10.728;2022-10-24T12:24:32;19.30;99.90
70368;DHT22;57789;53.868;10.728;2022-10-24T12:27:02;19.40;99.90
70368;DHT22;57789;53.868;10.728;2022-10-24T12:29:29;19.20;99.90
70368;DHT22;57789;53.868;10.728;2022-10-24T12:32:37;19.10;99.90
70368;DHT22;57789;53.868;10.728;2022-10-24T12:37:53;19.10;99.90
70368;DHT22;57789;53.868;10.728;2022-10-24T12:48:47;19.00;99.90
70368;DHT22;57789;53.868;10.728;2022-10-24T12:51:34;19.00;99.90
70368;DHT22;57789;53.868;10.728;2022-10-24T12:56:30;19.00;99.90
70368;DHT22;57789;53.868;10.728;2022-10-24T12:59:03;19.00;99.90
70368;DHT22;57789;53.868;10.728;2022-10-24T13:01:41;19.00;99.90
70368;DHT22;57789;53.868;10.728;2022-10-24T13:12:27;18.90;99.90
70368;DHT22;57789;53.868;10.728;2022-10-24T13:20:43;18.60;99.90
70368;DHT22;57789;53.868;10.728;2022-10-24T13:23:21;18.50;99.90
70368;DHT22;57789;53.868;10.728;2022-10-24T13:25:49;18.40;99.90
70368;DHT22;57789;53.868;10.728;2022-10-24T13:33:45;18.20;99.90
70368;DHT22;57789;53.868;10.728;2022-10-24T13:36:20;18.30;99.90
70368;DHT22;57789;53.868;10.728;2022-10-24T13:38:57;18.30;99.90
70368;DHT22;57789;53.868;10.728;2022-10-24T13:41:42;18.30;99.90
70368;DHT22;57789;53.868;10.728;2022-10-24T13:44:45;18.40;99.90
70368;DHT22;57789;53.868;10.728;2022-10-24T13:55:15;18.30;99.90
70368;DHT22;57789;53.868;10.728;2022-10-24T13:58:08;18.40;99.90
70368;DHT22;57789;53.868;10.728;2022-10-24T14:00:38;18.30;99.90
70368;DHT22;57789;53.868;10.728;2022-10-24T14:03:14;18.30;99.90
70368;DHT22;57789;53.868;10.728;2022-10-24T14:05:56;18.30;99.90
70368;DHT22;57789;53.868;10.728;2022-10-24T14:08:27;18.30;99.90
70368;DHT22;57789;53.868;10.728;2022-10-24T14:10:55;18.20;99.90
70368;DHT22;57789;53.868;10.728;2022-10-24T14:13:23;18.20;99.90
70368;DHT22;57789;53.868;10.728;2022-10-24T14:16:02;18.30;99.90
70368;DHT22;57789;53.868;10.728;2022-10-24T14:18:29;18.30;99.90
70368;DHT22;57789;53.868;10.728;2022-10-24T14:20:57;18.30;99.90
70368;DHT22;57789;53.868;10.728;2022-10-24T14:23:30;18.30;99.90
70368;DHT22;57789;53.868;10.728;2022-10-24T14:26:05;18.20;99.90
70368;DHT22;57789;53.868;10.728;2022-10-24T14:28:36;18.20;99.90
70368;DHT22;57789;53.868;10.728;2022-10-24T14:31:07;18.10;99.90
70368;DHT22;57789;53.868;10.728;2022-10-24T14:33:43;18.00;99.90
70368;DHT22;57789;53.868;10.728;2022-10-24T14:36:09;18.00;99.90
70368;DHT22;57789;53.868;10.728;2022-10-24T14:38:35;17.90;99.90
70368;DHT22;57789;53.868;10.728;2022-10-24T14:41:01;17.90;99.90
70368;DHT22;57789;53.868;10.728;2022-10-24T14:43:28;17.80;99.90
70368;DHT22;57789;53.868;10.728;2022-10-24T14:48:50;17.30;99.90
70368;DHT22;57789;53.868;10.728;2022-10-24T14:53:48;17.10;99.90
70368;DHT22;57789;53.868;10.728;2022-10-24T14:56:35;17.20;99.90
70368;DHT22;57789;53.868;10.728;2022-10-24T14:59:30;17.20;99.90
70368;DHT22;57789;53.868;10.728;2022-10-24T15:04:46;17.30;99.90
70368;DHT22;57789;53.868;10.728;2022-10-24T15:07:35;17.30;99.90
70368;DHT22;57789;53.868;10.728;2022-10-24T15:10:31;17.30;99.90
70368;DHT22;57789;53.868;10.728;2022-10-24T15:15:23;17.20;99.90
70368;DHT22;57789;53.868;10.728;2022-10-24T15:17:51;17.20;99.90
70368;DHT22;57789;53.868;10.728;2022-10-24T15:20:21;17.10;99.90
70368;DHT22;57789;53.868;10.728;2022-10-24T15:22:54;17.10;99.90
70368;DHT22;57789;53.868;10.728;2022-10-24T15:25:35;17.10;99.90
70368;DHT22;57789;53.868;10.728;2022-10-24T15:28:04;17.20;99.90
70368;DHT22;57789;53.868;10.728;2022-10-24T15:30:32;17.10;99.90
70368;DHT22;57789;53.868;10.728;2022-10-24T15:33:00;17.10;99.90
70368;DHT22;57789;53.868;10.728;2022-10-24T15:35:26;17.10;99.90
70368;DHT22;57789;53.868;10.728;2022-10-24T15:37:54;17.10;99.90
70368;DHT22;57789;53.868;10.728;2022-10-24T15:40:25;17.00;99.90
70368;DHT22;57789;53.868;10.728;2022-10-24T15:42:51;17.00;99.90
70368;DHT22;57789;53.868;10.728;2022-10-24T15:45:21;16.80;99.90
70368;DHT22;57789;53.868;10.728;2022-10-24T15:47:47;16.80;99.90
70368;DHT22;57789;53.868;10.728;2022-10-24T15:50:17;16.70;99.90
70368;DHT22;57789;53.868;10.728;2022-10-24T15:52:50;16.60;99.90
70368;DHT22;57789;53.868;10.728;2022-10-24T15:55:19;16.50;99.90
70368;DHT22;57789;53.868;10.728;2022-10-24T15:57:45;16.40;99.90
70368;DHT22;57789;53.868;10.728;2022-10-24T16:00:13;16.30;99.90
70368;DHT22;57789;53.868;10.728;2022-10-24T16:02:40;16.20;99.90
70368;DHT22;57789;53.868;10.728;2022-10-24T16:05:13;16.20;99.90
70368;DHT22;57789;53.868;10.728;2022-10-24T16:07:39;16.20;99.90
70368;DHT22;57789;53.868;10.728;2022-10-24T16:10:05;16.20;99.90
70368;DHT22;57789;53.868;10.728;2022-10-24T16:12:30;16.10;99.90
70368;DHT22;57789;53.868;10.728;2022-10-24T16:14:56;16.00;99.90
70368;DHT22;57789;53.868;10.728;2022-10-24T16:17:22;16.00;99.90
70368;DHT22;57789;53.868;10.728;2022-10-24T16:19:48;15.90;99.90
70368;DHT22;57789;53.868;10.728;2022-10-24T16:22:14;15.80;99.90
70368;DHT22;57789;53.868;10.728;2022-10-24T16:24:40;15.80;99.90
70368;DHT22;57789;53.868;10.728;2022-10-24T16:27:05;15.70;99.90
70368;DHT22;57789;53.868;10.728;2022-10-24T16:29:33;15.70;99.90
70368;DHT22;57789;53.868;10.728;2022-10-24T16:31:58;15.70;99.90
70368;DHT22;57789;53.868;10.728;2022-10-24T16:34:24;15.70;99.90
70368;DHT22;57789;53.868;10.728;2022-10-24T16:36:54;15.60;99.90
70368;DHT22;57789;53.868;10.728;2022-10-24T16:39:20;15.60;99.90
70368;DHT22;57789;53.868;10.728;2022-10-24T16:41:45;15.60;99.90
70368;DHT22;57789;53.868;10.728;2022-10-24T16:44:12;15.60;99.90
70368;DHT22;57789;53.868;10.728;2022-10-24T16:46:38;15.60;99.90
70368;DHT22;57789;53.868;10.728;2022-10-24T16:49:03;15.50;99.90
70368;DHT22;57789;53.868;10.728;2022-10-24T16:51:29;15.50;99.90
70368;DHT22;57789;53.868;10.728;2022-10-24T16:54:01;15.50;99.90
70368;DHT22;57789;53.868;10.728;2022-10-24T16:56:27;15.60;99.90
70368;DHT22;57789;53.868;10.728;2022-10-24T16:58:53;15.50;99.90
70368;DHT22;57789;53.868;10.728;2022-10-24T17:01:19;15.50;99.90
70368;DHT22;57789;53.868;10.728;2022-10-24T17:03:46;15.50;99.90
70368;DHT22;57789;53.868;10.728;2022-10-24T17:06:12;15.50;99.90
70368;DHT22;57789;53.868;10.728;2022-10-24T17:08:38;15.50;99.90
70368;DHT22;57789;53.868;10.728;2022-10-24T17:11:04;15.50;99.90
70368;DHT22;57789;53.868;10.728;2022-10-24T17:13:30;15.50;99.90
70368;DHT22;57789;53.868;10.728;2022-10-24T17:15:59;15.50;99.90
70368;DHT22;57789;53.868;10.728;2022-10-24T17:18:24;15.60;99.90
70368;DHT22;57789;53.868;10.728;2022-10-24T17:20:51;15.60;99.90
70368;DHT22;57789;53.868;10.728;2022-10-24T17:23:23;15.60;99.90
70368;DHT22;57789;53.868;10.728;2022-10-24T17:25:49;15.60;99.90
70368;DHT22;57789;53.868;10.728;2022-10-24T17:28:15;15.70;99.90
70368;DHT22;57789;53.868;10.728;2022-10-24T17:30:41;15.70;99.90
70368;DHT22;57789;53.868;10.728;2022-10-24T17:33:09;15.60;99.90
70368;DHT22;57789;53.868;10.728;2022-10-24T17:35:37;15.70;99.90
70368;DHT22;57789;53.868;10.728;2022-10-24T17:41:02;15.60;99.90